Time,TemperatureF,DewpointF,PressureIn,WindDirection,WindDirectionDegrees,WindSpeedMPH,WindSpeedGustMPH,Humidity,HourlyPrecipIn,Conditions,Clouds,dailyrainin,SoftwareType,DateUTC
2013-02-05 07:32:00,31.5,28.1,29.92,NE,41,3.0,3.0,87,0.00,,,0.00,Wunderground v.1.15,2013-02-05 12:32:00,
2013-02-05 07:33:00,31.5,28.1,29.92,NE,41,3.0,3.0,87,0.00,,,0.00,Wunderground v.1.15,2013-02-05 12:33:00,
2013-02-05 07:36:00,31.4,28.3,29.92,NE,41,3.0,3.0,88,0.00,,,0.00,Wunderground v.1.15,2013-02-05 12:36:00,
2013-02-05 07:41:00,31.3,28.2,29.92,NE,41,3.0,3.0,88,0.00,,,0.00,Wunderground v.1.15,2013-02-05 12:41:00,
2013-02-05 07:46:00,31.2,28.1,29.92,NE,41,2.0,3.0,88,0.00,,,0.00,Wunderground v.1.15,2013-02-05 12:46:00,
2013-02-05 07:51:00,31.2,28.1,29.92,NE,41,2.0,4.0,88,0.00,,,0.00,Wunderground v.1.15,2013-02-05 12:51:00,
2013-02-05 07:56:00,31.2,28.3,29.93,NE,41,2.0,4.0,89,0.00,,,0.00,Wunderground v.1.15,2013-02-05 12:56:00,
2013-02-05 08:02:00,31.1,28.2,29.93,NE,41,2.0,4.0,89,0.00,,,0.00,Wunderground v.1.15,2013-02-05 13:02:00,
2013-02-05 08:07:00,31.1,28.2,29.93,NE,41,3.0,4.0,89,0.00,,,0.00,Wunderground v.1.15,2013-02-05 13:07:00,
2013-02-05 08:13:00,31.2,28.3,29.94,NE,41,2.0,4.0,89,0.00,,,0.00,Wunderground v.1.15,2013-02-05 13:13:00,
2013-02-05 08:18:00,31.2,28.6,29.95,NE,41,2.0,4.0,90,0.00,,,0.00,Wunderground v.1.15,2013-02-05 13:18:00,
2013-02-05 08:23:00,31.2,28.6,29.94,NE,41,2.0,3.0,90,0.00,,,0.00,Wunderground v.1.15,2013-02-05 13:23:00,
2013-02-05 08:29:00,31.2,28.6,29.94,NE,40,2.0,5.0,90,0.00,,,0.00,Wunderground v.1.15,2013-02-05 13:29:00,
2013-02-05 08:35:00,31.3,28.7,29.94,NE,40,3.0,4.0,90,0.00,,,0.00,Wunderground v.1.15,2013-02-05 13:35:00,
2013-02-05 08:40:00,31.2,28.6,29.95,NE,40,2.0,2.0,90,0.00,,,0.00,Wunderground v.1.15,2013-02-05 13:40:00,
2013-02-05 08:46:00,31.2,28.6,29.95,NE,40,2.0,3.0,90,0.00,,,0.00,Wunderground v.1.15,2013-02-05 13:46:00,
2013-02-05 08:51:00,31.2,28.6,29.94,NE,40,2.0,3.0,90,0.00,,,0.00,Wunderground v.1.15,2013-02-05 13:51:00,
2013-02-05 08:56:00,31.1,28.5,29.94,NE,40,2.0,3.0,90,0.00,,,0.00,Wunderground v.1.15,2013-02-05 13:56:00,
2013-02-05 09:02:00,31.3,28.7,29.94,NE,35,2.0,3.0,90,0.00,,,0.00,Wunderground v.1.15,2013-02-05 14:02:00,
2013-02-05 09:07:00,31.6,29.0,29.94,NE,35,3.0,4.0,90,0.00,,,0.00,Wunderground v.1.15,2013-02-05 14:07:00,
2013-02-05 09:14:00,31.7,28.8,29.94,NNE,33,4.0,4.0,89,0.00,,,0.00,Wunderground v.1.15,2013-02-05 14:14:00,
2013-02-05 09:19:00,31.8,28.9,29.95,NNE,33,3.0,4.0,89,0.00,,,0.00,Wunderground v.1.15,2013-02-05 14:19:00,
2013-02-05 09:24:00,32.0,29.1,29.94,NNE,33,2.0,3.0,89,0.00,,,0.00,Wunderground v.1.15,2013-02-05 14:24:00,
2013-02-05 09:29:00,32.0,30.7,29.95,NNE,33,2.0,4.0,95,0.00,,,0.00,Wunderground v.1.15,2013-02-05 14:29:00,
2013-02-05 09:34:00,32.0,28.8,29.95,NNE,33,2.0,4.0,88,0.00,,,0.00,Wunderground v.1.15,2013-02-05 14:34:00,
2013-02-05 09:40:00,31.9,28.8,29.95,NNE,33,2.0,3.0,88,0.00,,,0.00,Wunderground v.1.15,2013-02-05 14:40:00,
2013-02-05 09:45:00,31.8,28.7,29.95,NNE,32,3.0,6.0,88,0.00,,,0.00,Wunderground v.1.15,2013-02-05 14:45:00,
2013-02-05 09:51:00,31.8,28.7,29.94,NNE,32,4.0,4.0,88,0.00,,,0.00,Wunderground v.1.15,2013-02-05 14:51:00,
2013-02-05 09:56:00,32.0,29.1,29.94,NNE,32,3.0,4.0,89,0.00,,,0.00,Wunderground v.1.15,2013-02-05 14:56:00,
2013-02-05 10:02:00,32.4,29.2,29.94,NNE,32,2.0,3.0,88,0.00,,,0.00,Wunderground v.1.15,2013-02-05 15:02:00,
2013-02-05 10:07:00,32.7,29.5,29.94,NNE,32,2.0,3.0,88,0.00,,,0.00,Wunderground v.1.15,2013-02-05 15:07:00,
2013-02-05 10:14:00,33.1,29.9,29.95,NNE,32,2.0,3.0,88,0.00,,,0.00,Wunderground v.1.15,2013-02-05 15:14:00,
2013-02-05 10:19:00,33.1,29.7,29.95,NNE,32,1.0,4.0,87,0.00,,,0.00,Wunderground v.1.15,2013-02-05 15:19:00,
2013-02-05 10:25:00,33.1,29.7,29.95,NNE,32,2.0,3.0,87,0.00,,,0.00,Wunderground v.1.15,2013-02-05 15:25:00,
2013-02-05 10:30:00,33.2,29.8,29.95,NNE,32,3.0,3.0,87,0.00,,,0.00,Wunderground v.1.15,2013-02-05 15:30:00,
2013-02-05 10:35:00,33.4,29.9,29.95,NNE,32,3.0,3.0,87,0.00,,,0.00,Wunderground v.1.15,2013-02-05 15:35:00,
2013-02-05 10:40:00,33.7,30.0,29.95,NNE,32,2.0,2.0,86,0.00,,,0.00,Wunderground v.1.15,2013-02-05 15:40:00,
2013-02-05 10:45:00,33.9,30.2,29.95,NNE,32,1.0,3.0,86,0.00,,,0.00,Wunderground v.1.15,2013-02-05 15:45:00,
2013-02-05 10:51:00,34.1,30.1,29.95,NNE,32,1.0,3.0,85,0.00,,,0.00,Wunderground v.1.15,2013-02-05 15:51:00,
2013-02-05 10:56:00,34.1,30.1,29.95,NNE,32,1.0,3.0,85,0.00,,,0.00,Wunderground v.1.15,2013-02-05 15:56:00,
2013-02-05 11:01:00,34.4,30.4,29.94,NNE,32,2.0,2.0,85,0.00,,,0.00,Wunderground v.1.15,2013-02-05 16:01:00,
2013-02-05 11:06:00,34.5,30.5,29.94,NNE,32,1.0,2.0,85,0.00,,,0.00,Wunderground v.1.15,2013-02-05 16:06:00,
2013-02-05 11:12:00,34.9,30.6,29.94,NNE,32,1.0,1.0,84,0.00,,,0.00,Wunderground v.1.15,2013-02-05 16:12:00,
2013-02-05 11:17:00,35.5,31.1,29.94,NNE,32,1.0,2.0,84,0.00,,,0.00,Wunderground v.1.15,2013-02-05 16:17:00,
2013-02-05 11:23:00,36.0,31.0,29.94,NNE,32,2.0,3.0,82,0.00,,,0.00,Wunderground v.1.15,2013-02-05 16:23:00,
2013-02-05 11:28:00,36.3,31.3,29.94,NNE,32,2.0,3.0,82,0.00,,,0.00,Wunderground v.1.15,2013-02-05 16:28:00,
2013-02-05 11:33:00,36.7,31.4,29.94,NNE,32,2.0,2.0,81,0.00,,,0.00,Wunderground v.1.15,2013-02-05 16:33:00,
2013-02-05 11:39:00,37.0,31.7,29.94,NNE,32,1.0,2.0,81,0.00,,,0.00,Wunderground v.1.15,2013-02-05 16:39:00,
2013-02-05 11:45:00,37.2,31.6,29.94,NNE,32,0.0,1.0,80,0.00,,,0.00,Wunderground v.1.15,2013-02-05 16:45:00,
2013-02-05 11:50:00,37.4,31.8,29.93,NNE,32,0.0,2.0,80,0.00,,,0.00,Wunderground v.1.15,2013-02-05 16:50:00,
2013-02-05 11:55:00,37.4,31.8,29.92,NNE,32,1.0,2.0,80,0.00,,,0.00,Wunderground v.1.15,2013-02-05 16:55:00,
2013-02-05 12:01:00,37.4,31.8,29.92,NNE,32,1.0,1.0,80,0.00,,,0.00,Wunderground v.1.15,2013-02-05 17:01:00,
2013-02-05 12:06:00,37.2,31.6,29.92,NNE,32,0.0,1.0,80,0.00,,,0.00,Wunderground v.1.15,2013-02-05 17:06:00,
2013-02-05 12:12:00,37.0,31.4,29.91,NNE,32,1.0,1.0,80,0.00,,,0.00,Wunderground v.1.15,2013-02-05 17:12:00,
2013-02-05 12:17:00,36.8,31.2,29.91,NNE,32,0.0,1.0,80,0.00,,,0.00,Wunderground v.1.15,2013-02-05 17:17:00,
2013-02-05 12:24:00,36.6,31.3,29.91,NNE,32,0.0,1.0,81,0.00,,,0.00,Wunderground v.1.15,2013-02-05 17:24:00,
2013-02-05 12:29:00,36.6,31.3,29.90,NNE,32,0.0,1.0,81,0.00,,,0.00,Wunderground v.1.15,2013-02-05 17:29:00,
2013-02-05 12:34:00,36.7,31.4,29.90,NNE,32,0.0,0.0,81,0.00,,,0.00,Wunderground v.1.15,2013-02-05 17:34:00,
2013-02-05 12:39:00,36.8,31.5,29.90,NNE,32,0.0,2.0,81,0.00,,,0.00,Wunderground v.1.15,2013-02-05 17:39:00,
2013-02-05 12:44:00,36.8,31.5,29.89,NNE,32,1.0,3.0,81,0.00,,,0.00,Wunderground v.1.15,2013-02-05 17:44:00,
2013-02-05 12:50:00,36.5,31.2,29.89,ENE,60,1.0,1.0,81,0.00,,,0.00,Wunderground v.1.15,2013-02-05 17:50:00,
2013-02-05 12:55:00,36.4,31.4,29.89,ENE,61,0.0,1.0,82,0.00,,,0.00,Wunderground v.1.15,2013-02-05 17:55:00,
2013-02-05 13:00:00,36.4,31.4,29.89,ENE,60,0.0,0.0,82,0.00,,,0.00,Wunderground v.1.15,2013-02-05 18:00:00,
2013-02-05 13:06:00,36.4,31.4,29.88,ENE,60,0.0,0.0,82,0.00,,,0.00,Wunderground v.1.15,2013-02-05 18:06:00,
2013-02-05 13:11:00,36.4,31.4,29.88,ENE,60,0.0,0.0,82,0.00,,,0.00,Wunderground v.1.15,2013-02-05 18:11:00,
2013-02-05 13:17:00,36.4,31.4,29.88,ENE,61,0.0,0.0,82,0.00,,,0.00,Wunderground v.1.15,2013-02-05 18:17:00,
2013-02-05 13:22:00,36.4,31.4,29.88,ENE,61,0.0,0.0,82,0.00,,,0.00,Wunderground v.1.15,2013-02-05 18:22:00,
2013-02-05 13:29:00,36.3,31.6,29.88,ENE,61,0.0,1.0,83,0.00,,,0.00,Wunderground v.1.15,2013-02-05 18:29:00,
2013-02-05 13:34:00,36.2,31.5,29.88,ENE,61,0.0,0.0,83,0.00,,,0.00,Wunderground v.1.15,2013-02-05 18:34:00,
2013-02-05 13:39:00,36.2,31.5,29.87,ENE,61,0.0,1.0,83,0.00,,,0.00,Wunderground v.1.15,2013-02-05 18:39:00,
2013-02-05 13:44:00,36.5,32.4,29.87,ENE,61,0.0,0.0,85,0.00,,,0.00,Wunderground v.1.15,2013-02-05 18:44:00,
2013-02-05 13:50:00,36.8,32.7,29.87,ENE,61,0.0,0.0,85,0.00,,,0.00,Wunderground v.1.15,2013-02-05 18:50:00,
2013-02-05 13:55:00,36.7,32.3,29.88,ENE,61,0.0,0.0,84,0.00,,,0.00,Wunderground v.1.15,2013-02-05 18:55:00,
2013-02-05 14:01:00,36.7,32.3,29.88,ENE,61,0.0,0.0,84,0.00,,,0.00,Wunderground v.1.15,2013-02-05 19:01:00,
2013-02-05 14:06:00,36.6,32.2,29.88,ENE,61,0.0,0.0,84,0.00,,,0.00,Wunderground v.1.15,2013-02-05 19:06:00,
2013-02-05 14:12:00,36.9,32.8,29.87,ENE,61,0.0,0.0,85,0.00,,,0.01,Wunderground v.1.15,2013-02-05 19:12:00,
2013-02-05 14:17:00,37.1,33.0,29.87,ENE,61,0.0,1.0,85,0.00,,,0.01,Wunderground v.1.15,2013-02-05 19:17:00,
2013-02-05 14:23:00,36.9,32.5,29.87,ENE,61,0.0,0.0,84,0.00,,,0.01,Wunderground v.1.15,2013-02-05 19:23:00,
2013-02-05 14:29:00,36.7,32.3,29.87,ENE,61,0.0,2.0,84,0.00,,,0.01,Wunderground v.1.15,2013-02-05 19:29:00,
2013-02-05 14:34:00,36.6,32.5,29.87,ENE,60,0.0,1.0,85,0.00,,,0.01,Wunderground v.1.15,2013-02-05 19:34:00,
2013-02-05 14:39:00,36.6,32.8,29.87,ENE,60,0.0,1.0,86,0.00,,,0.01,Wunderground v.1.15,2013-02-05 19:39:00,
2013-02-05 14:45:00,36.6,32.5,29.87,ENE,61,0.0,1.0,85,0.00,,,0.01,Wunderground v.1.15,2013-02-05 19:45:00,
2013-02-05 14:50:00,36.8,33.0,29.87,ENE,61,0.0,0.0,86,0.00,,,0.01,Wunderground v.1.15,2013-02-05 19:50:00,
2013-02-05 14:56:00,36.9,33.1,29.87,ENE,60,0.0,2.0,86,0.00,,,0.01,Wunderground v.1.15,2013-02-05 19:56:00,
2013-02-05 15:01:00,37.2,33.4,29.88,ENE,61,0.0,0.0,86,0.00,,,0.01,Wunderground v.1.15,2013-02-05 20:01:00,
2013-02-05 15:07:00,37.4,33.6,29.87,ENE,60,0.0,3.0,86,0.00,,,0.01,Wunderground v.1.15,2013-02-05 20:07:00,
2013-02-05 15:12:00,37.5,33.7,29.87,ENE,61,0.0,1.0,86,0.00,,,0.01,Wunderground v.1.15,2013-02-05 20:12:00,
2013-02-05 15:18:00,37.5,33.4,29.88,ENE,61,0.0,1.0,85,0.00,,,0.01,Wunderground v.1.15,2013-02-05 20:18:00,
2013-02-05 15:24:00,37.4,33.3,29.88,ENE,61,0.0,0.0,85,0.00,,,0.01,Wunderground v.1.15,2013-02-05 20:24:00,
2013-02-05 15:29:00,37.4,33.3,29.88,ENE,61,0.0,1.0,85,0.00,,,0.01,Wunderground v.1.15,2013-02-05 20:29:00,
2013-02-05 15:34:00,37.4,33.3,29.88,ENE,61,0.0,2.0,85,0.00,,,0.01,Wunderground v.1.15,2013-02-05 20:34:00,
2013-02-05 15:40:00,37.2,33.1,29.88,ENE,61,0.0,0.0,85,0.00,,,0.01,Wunderground v.1.15,2013-02-05 20:40:00,
2013-02-05 15:45:00,37.0,33.2,29.88,ENE,60,0.0,2.0,86,0.00,,,0.01,Wunderground v.1.15,2013-02-05 20:45:00,
2013-02-05 15:51:00,37.1,33.3,29.88,ENE,61,0.0,0.0,86,0.00,,,0.01,Wunderground v.1.15,2013-02-05 20:51:00,
2013-02-05 15:56:00,37.1,33.6,29.88,ENE,61,0.0,0.0,87,0.00,,,0.01,Wunderground v.1.15,2013-02-05 20:56:00,
2013-02-05 16:01:00,37.1,33.6,29.88,ENE,61,0.0,0.0,87,0.00,,,0.01,Wunderground v.1.15,2013-02-05 21:01:00,
2013-02-05 16:07:00,37.3,33.8,29.88,ENE,61,0.0,2.0,87,0.00,,,0.01,Wunderground v.1.15,2013-02-05 21:07:00,
2013-02-05 16:12:00,37.3,33.8,29.88,ENE,60,1.0,3.0,87,0.00,,,0.01,Wunderground v.1.15,2013-02-05 21:12:00,
2013-02-05 16:19:00,37.1,33.6,29.88,ENE,60,2.0,3.0,87,0.00,,,0.01,Wunderground v.1.15,2013-02-05 21:19:00,
2013-02-05 16:24:00,37.1,33.6,29.88,ENE,60,1.0,2.0,87,0.00,,,0.01,Wunderground v.1.15,2013-02-05 21:24:00,
2013-02-05 16:29:00,37.0,33.5,29.88,ENE,60,1.0,2.0,87,0.00,,,0.01,Wunderground v.1.15,2013-02-05 21:29:00,
2013-02-05 16:35:00,37.0,33.5,29.88,ENE,60,0.0,2.0,87,0.00,,,0.01,Wunderground v.1.15,2013-02-05 21:35:00,
2013-02-05 16:40:00,36.9,33.4,29.88,ENE,60,0.0,0.0,87,0.00,,,0.01,Wunderground v.1.15,2013-02-05 21:40:00,
2013-02-05 16:46:00,37.0,33.5,29.89,ENE,61,0.0,0.0,87,0.00,,,0.01,Wunderground v.1.15,2013-02-05 21:46:00,
2013-02-05 16:51:00,37.3,33.8,29.88,ENE,61,0.0,0.0,87,0.00,,,0.01,Wunderground v.1.15,2013-02-05 21:51:00,
2013-02-05 16:56:00,37.4,33.9,29.88,ENE,61,0.0,2.0,87,0.00,,,0.01,Wunderground v.1.15,2013-02-05 21:56:00,
2013-02-05 17:02:00,37.5,33.7,29.88,ENE,61,0.0,0.0,86,0.00,,,0.01,Wunderground v.1.15,2013-02-05 22:02:00,
2013-02-05 17:07:00,37.4,33.6,29.88,ENE,60,0.0,0.0,86,0.00,,,0.01,Wunderground v.1.15,2013-02-05 22:07:00,
2013-02-05 17:12:00,37.1,33.3,29.88,ENE,60,0.0,0.0,86,0.00,,,0.01,Wunderground v.1.15,2013-02-05 22:12:00,
2013-02-05 17:18:00,36.7,32.9,29.89,ENE,61,0.0,0.0,86,0.00,,,0.01,Wunderground v.1.15,2013-02-05 22:18:00,
2013-02-05 17:24:00,36.3,32.5,29.89,ENE,60,0.0,0.0,86,0.00,,,0.01,Wunderground v.1.15,2013-02-05 22:24:00,
2013-02-05 17:29:00,35.9,32.1,29.89,ENE,60,0.0,0.0,86,0.00,,,0.01,Wunderground v.1.15,2013-02-05 22:29:00,
2013-02-05 17:35:00,35.5,31.7,29.89,ENE,60,0.0,0.0,86,0.00,,,0.01,Wunderground v.1.15,2013-02-05 22:35:00,
2013-02-05 17:40:00,35.2,31.4,29.89,ENE,60,0.0,0.0,86,0.00,,,0.01,Wunderground v.1.15,2013-02-05 22:40:00,
2013-02-05 17:46:00,34.7,31.2,29.88,ENE,60,0.0,0.0,87,0.00,,,0.01,Wunderground v.1.15,2013-02-05 22:46:00,
2013-02-05 17:51:00,34.4,30.9,29.88,ENE,60,0.0,0.0,87,0.00,,,0.01,Wunderground v.1.15,2013-02-05 22:51:00,
2013-02-05 17:57:00,33.6,30.1,29.88,ENE,61,0.0,0.0,87,0.00,,,0.01,Wunderground v.1.15,2013-02-05 22:57:00,
2013-02-05 18:02:00,32.9,29.5,29.88,ENE,61,0.0,0.0,87,0.00,,,0.01,Wunderground v.1.15,2013-02-05 23:02:00,
2013-02-05 18:08:00,32.1,28.9,29.89,ENE,60,0.0,0.0,88,0.00,,,0.01,Wunderground v.1.15,2013-02-05 23:08:00,
2013-02-05 18:14:00,31.4,28.3,29.89,ENE,60,0.0,1.0,88,0.00,,,0.01,Wunderground v.1.15,2013-02-05 23:14:00,
2013-02-05 18:19:00,30.9,27.8,29.89,ENE,61,0.0,1.0,88,0.00,,,0.01,Wunderground v.1.15,2013-02-05 23:19:00,
2013-02-05 18:24:00,30.4,27.5,29.89,ENE,61,0.0,0.0,89,0.00,,,0.01,Wunderground v.1.15,2013-02-05 23:24:00,
2013-02-05 18:29:00,30.1,27.3,29.89,ENE,61,0.0,1.0,89,0.00,,,0.01,Wunderground v.1.15,2013-02-05 23:29:00,
2013-02-05 18:35:00,30.3,28.0,29.90,ENE,61,1.0,2.0,91,0.00,,,0.01,Wunderground v.1.15,2013-02-05 23:35:00,
2013-02-05 18:40:00,30.6,28.3,29.89,ENE,61,1.0,1.0,91,0.00,,,0.01,Wunderground v.1.15,2013-02-05 23:40:00,
2013-02-05 18:46:00,30.8,28.8,29.90,ENE,61,0.0,1.0,92,0.00,,,0.01,Wunderground v.1.15,2013-02-05 23:46:00,
2013-02-05 18:52:00,30.8,28.5,29.89,ENE,61,0.0,0.0,91,0.00,,,0.01,Wunderground v.1.15,2013-02-05 23:52:00,
2013-02-05 18:57:00,30.6,28.6,29.89,ENE,61,0.0,0.0,92,0.00,,,0.01,Wunderground v.1.15,2013-02-05 23:57:00,
2013-02-05 19:03:00,30.1,27.8,29.90,ENE,61,0.0,0.0,91,0.00,,,0.01,Wunderground v.1.15,2013-02-06 00:03:00,
2013-02-05 19:08:00,29.8,27.5,29.89,ENE,60,0.0,0.0,91,0.00,,,0.01,Wunderground v.1.15,2013-02-06 00:08:00,
2013-02-05 19:14:00,29.6,27.6,29.90,ENE,60,0.0,1.0,92,0.00,,,0.01,Wunderground v.1.15,2013-02-06 00:14:00,
2013-02-05 19:19:00,29.6,27.6,29.90,ENE,61,0.0,1.0,92,0.00,,,0.01,Wunderground v.1.15,2013-02-06 00:19:00,
2013-02-05 19:25:00,29.0,26.7,29.90,ENE,61,0.0,2.0,91,0.00,,,0.01,Wunderground v.1.15,2013-02-06 00:25:00,
2013-02-05 19:30:00,28.7,26.4,29.90,ENE,61,0.0,0.0,91,0.00,,,0.01,Wunderground v.1.15,2013-02-06 00:30:00,
2013-02-05 19:36:00,29.0,27.0,29.90,ENE,61,0.0,2.0,92,0.00,,,0.01,Wunderground v.1.15,2013-02-06 00:36:00,
2013-02-05 19:42:00,29.1,27.1,29.91,ENE,61,1.0,1.0,92,0.00,,,0.01,Wunderground v.1.15,2013-02-06 00:42:00,
2013-02-05 19:49:00,28.3,26.3,29.90,ENE,61,0.0,1.0,92,0.00,,,0.01,Wunderground v.1.15,2013-02-06 00:49:00,
2013-02-05 19:54:00,28.1,26.1,29.90,ENE,61,0.0,0.0,92,0.00,,,0.01,Wunderground v.1.15,2013-02-06 00:54:00,
2013-02-05 19:59:00,28.1,26.1,29.90,ENE,61,0.0,0.0,92,0.00,,,0.01,Wunderground v.1.15,2013-02-06 00:59:00,
2013-02-05 20:04:00,27.9,25.9,29.91,ENE,61,0.0,0.0,92,0.00,,,0.01,Wunderground v.1.15,2013-02-06 01:04:00,
2013-02-05 20:10:00,27.5,25.5,29.91,ENE,61,0.0,1.0,92,0.00,,,0.01,Wunderground v.1.15,2013-02-06 01:10:00,
2013-02-05 20:15:00,27.4,25.4,29.91,ENE,61,0.0,1.0,92,0.00,,,0.01,Wunderground v.1.15,2013-02-06 01:15:00,
2013-02-05 20:21:00,27.4,25.6,29.91,ENE,60,0.0,0.0,93,0.00,,,0.01,Wunderground v.1.15,2013-02-06 01:21:00,
2013-02-05 20:26:00,27.4,25.6,29.91,ENE,61,0.0,0.0,93,0.00,,,0.01,Wunderground v.1.15,2013-02-06 01:26:00,
2013-02-05 20:32:00,27.6,25.8,29.91,ENE,61,0.0,0.0,93,0.00,,,0.01,Wunderground v.1.15,2013-02-06 01:32:00,
2013-02-05 20:37:00,27.8,26.0,29.91,ENE,61,0.0,0.0,93,0.00,,,0.01,Wunderground v.1.15,2013-02-06 01:37:00,
2013-02-05 20:43:00,27.9,26.1,29.92,ENE,61,0.0,1.0,93,0.00,,,0.01,Wunderground v.1.15,2013-02-06 01:43:00,
2013-02-05 20:49:00,28.2,26.4,29.92,ENE,61,0.0,1.0,93,0.00,,,0.01,Wunderground v.1.15,2013-02-06 01:49:00,
2013-02-05 20:54:00,28.4,26.9,29.92,ENE,60,0.0,0.0,94,0.00,,,0.01,Wunderground v.1.15,2013-02-06 01:54:00,
2013-02-05 20:59:00,28.8,27.3,29.92,ENE,61,0.0,0.0,94,0.00,,,0.01,Wunderground v.1.15,2013-02-06 01:59:00,
2013-02-05 21:05:00,29.2,27.7,29.93,ENE,60,0.0,0.0,94,0.00,,,0.01,Wunderground v.1.15,2013-02-06 02:05:00,
2013-02-05 21:10:00,29.3,27.8,29.93,ENE,61,0.0,0.0,94,0.00,,,0.01,Wunderground v.1.15,2013-02-06 02:10:00,
2013-02-05 21:16:00,30.0,28.5,29.93,ENE,61,0.0,2.0,94,0.00,,,0.01,Wunderground v.1.15,2013-02-06 02:16:00,
2013-02-05 21:21:00,30.8,29.5,29.94,ENE,60,1.0,2.0,95,0.00,,,0.01,Wunderground v.1.15,2013-02-06 02:21:00,
2013-02-05 21:27:00,31.4,30.1,29.94,ENE,60,0.0,2.0,95,0.00,,,0.01,Wunderground v.1.15,2013-02-06 02:27:00,
2013-02-05 21:32:00,31.7,30.2,29.94,ENE,61,0.0,0.0,94,0.00,,,0.01,Wunderground v.1.15,2013-02-06 02:32:00,